Terminal Aerodrome Forecast
Issued by NWS Knoxville/Tri Cities, TN

Home | Current Version | Previous Version | Text Only | Print | Product List | Glossary On
Versions: 1 2 3 4 5 6 7 8 9 10 11 12 13 14 15 16 17 18 19 20 21 22 23 24 25 26 27 28 29 30 31 32 33 34 35 36 37
000
FTUS44 KMRX 301127
TAFTYS
TAF
KTYS 301127Z 3012/3112 00000KT P6SM BKN090
      TEMPO 3012/3013 4SM BR SCT001 BKN090
     FM301300 22008KT P6SM SCT040
     FM301900 23012KT P6SM SCT050 SCT250
     FM310100 22005KT P6SM FEW050 BKN150
     FM310600 VRB03KT 6SM BR BKN250
     FM311100 22003KT 4SM BR BKN250=

USA.gov is the U.S. government's official web portal to all federal, state and local government web resources and services.